Glen Ellyn, Illinois
Current Conditions -  °F | °C
As of 1:52 AM on Saturday 20 Dec 2014 (Local Time) from KDPA Reporting Station
Overcast Overcast  
Wind Chill: 27°   Ceiling: 2600
Heat Index: 27°   Visibility: 7mi
Dew Point: 23°   Wind: 0mph
Humidity: 85%   Direction: NA
Pressure: 30.27"   Gusts: NA
Location:  41.88°N, 88.06°W
Report Text: KDPA 200752Z 00000KT 7SM OVC026 M03/M05 A3027 RMK AO2 SLP259 T10281050
Loading
Personal Weather Stations






























Interactive Weather Map New forecast layout! Learn more

10-Day Weather Forecast

Advertisements
Track Severe Weather on mobile